sensor_id;sensor_type;location;lat;lon;timestamp;P1;durP1;ratioP1;P2;durP2;ratioP2
75516;SDS011;64097;52.548;13.406;2022-12-18T06:04:49;28.88;;;14.82;;
75516;SDS011;64097;52.548;13.406;2022-12-18T06:07:14;30.75;;;15.70;;
75516;SDS011;64097;52.548;13.406;2022-12-18T06:09:40;33.50;;;16.48;;
75516;SDS011;64097;52.548;13.406;2022-12-18T06:12:06;36.28;;;18.65;;
75516;SDS011;64097;52.548;13.406;2022-12-18T06:14:31;35.17;;;17.50;;
75516;SDS011;64097;52.548;13.406;2022-12-18T06:16:57;31.90;;;16.90;;
75516;SDS011;64097;52.548;13.406;2022-12-18T06:19:23;37.85;;;18.00;;
75516;SDS011;64097;52.548;13.406;2022-12-18T06:21:49;37.85;;;18.40;;
75516;SDS011;64097;52.548;13.406;2022-12-18T06:24:15;41.83;;;20.52;;
75516;SDS011;64097;52.548;13.406;2022-12-18T06:26:41;39.00;;;18.90;;
75516;SDS011;64097;52.548;13.406;2022-12-18T06:29:07;38.05;;;18.95;;
75516;SDS011;64097;52.548;13.406;2022-12-18T06:31:32;40.83;;;20.05;;
75516;SDS011;64097;52.548;13.406;2022-12-18T06:33:58;44.60;;;21.40;;
75516;SDS011;64097;52.548;13.406;2022-12-18T06:36:24;40.10;;;19.70;;
75516;SDS011;64097;52.548;13.406;2022-12-18T06:38:49;38.60;;;18.83;;
75516;SDS011;64097;52.548;13.406;2022-12-18T06:41:16;36.85;;;18.48;;
75516;SDS011;64097;52.548;13.406;2022-12-18T06:43:43;39.67;;;21.17;;
75516;SDS011;64097;52.548;13.406;2022-12-18T06:46:09;42.33;;;20.52;;
75516;SDS011;64097;52.548;13.406;2022-12-18T06:48:35;41.85;;;21.58;;
75516;SDS011;64097;52.548;13.406;2022-12-18T06:51:01;37.85;;;19.02;;
75516;SDS011;64097;52.548;13.406;2022-12-18T06:53:27;39.58;;;19.98;;
75516;SDS011;64097;52.548;13.406;2022-12-18T06:55:59;44.15;;;20.40;;
75516;SDS011;64097;52.548;13.406;2022-12-18T06:58:26;38.88;;;20.00;;
75516;SDS011;64097;52.548;13.406;2022-12-18T07:00:52;36.25;;;18.88;;
75516;SDS011;64097;52.548;13.406;2022-12-18T07:03:18;38.97;;;19.55;;
75516;SDS011;64097;52.548;13.406;2022-12-18T07:05:44;38.20;;;20.13;;
75516;SDS011;64097;52.548;13.406;2022-12-18T07:08:09;46.28;;;22.90;;
75516;SDS011;64097;52.548;13.406;2022-12-18T07:10:41;46.72;;;22.95;;
75516;SDS011;64097;52.548;13.406;2022-12-18T07:13:08;42.70;;;21.83;;
75516;SDS011;64097;52.548;13.406;2022-12-18T07:15:33;40.17;;;20.75;;
75516;SDS011;64097;52.548;13.406;2022-12-18T07:17:59;38.83;;;20.70;;
75516;SDS011;64097;52.548;13.406;2022-12-18T07:20:24;37.17;;;19.50;;
75516;SDS011;64097;52.548;13.406;2022-12-18T07:22:50;39.50;;;20.83;;
75516;SDS011;64097;52.548;13.406;2022-12-18T07:25:16;38.03;;;19.15;;
75516;SDS011;64097;52.548;13.406;2022-12-18T07:27:41;37.70;;;19.30;;
75516;SDS011;64097;52.548;13.406;2022-12-18T07:30:07;40.92;;;21.25;;
75516;SDS011;64097;52.548;13.406;2022-12-18T07:32:34;43.88;;;22.10;;
75516;SDS011;64097;52.548;13.406;2022-12-18T07:34:59;41.22;;;20.40;;
75516;SDS011;64097;52.548;13.406;2022-12-18T07:37:25;45.03;;;22.63;;
75516;SDS011;64097;52.548;13.406;2022-12-18T07:39:51;40.47;;;20.63;;
75516;SDS011;64097;52.548;13.406;2022-12-18T07:42:16;38.38;;;20.23;;
75516;SDS011;64097;52.548;13.406;2022-12-18T07:44:57;39.53;;;20.17;;
75516;SDS011;64097;52.548;13.406;2022-12-18T07:47:24;44.65;;;22.20;;
75516;SDS011;64097;52.548;13.406;2022-12-18T07:49:50;38.78;;;20.48;;
75516;SDS011;64097;52.548;13.406;2022-12-18T07:52:16;39.10;;;18.70;;
75516;SDS011;64097;52.548;13.406;2022-12-18T07:54:42;40.67;;;20.90;;
75516;SDS011;64097;52.548;13.406;2022-12-18T07:57:08;49.30;;;23.15;;
75516;SDS011;64097;52.548;13.406;2022-12-18T07:59:35;43.33;;;21.23;;
75516;SDS011;64097;52.548;13.406;2022-12-18T08:02:00;46.03;;;21.30;;
75516;SDS011;64097;52.548;13.406;2022-12-18T08:04:26;40.60;;;19.77;;
75516;SDS011;64097;52.548;13.406;2022-12-18T08:06:52;41.90;;;21.10;;
75516;SDS011;64097;52.548;13.406;2022-12-18T08:09:18;42.72;;;21.60;;
75516;SDS011;64097;52.548;13.406;2022-12-18T08:11:43;36.25;;;19.45;;
75516;SDS011;64097;52.548;13.406;2022-12-18T08:14:09;35.38;;;18.13;;
75516;SDS011;64097;52.548;13.406;2022-12-18T08:16:35;40.63;;;21.50;;
75516;SDS011;64097;52.548;13.406;2022-12-18T08:19:01;39.08;;;20.83;;
75516;SDS011;64097;52.548;13.406;2022-12-18T08:21:28;35.92;;;18.48;;
75516;SDS011;64097;52.548;13.406;2022-12-18T08:23:56;34.03;;;17.90;;
75516;SDS011;64097;52.548;13.406;2022-12-18T08:26:24;36.50;;;19.50;;
75516;SDS011;64097;52.548;13.406;2022-12-18T08:28:52;41.72;;;21.35;;
75516;SDS011;64097;52.548;13.406;2022-12-18T08:31:23;39.65;;;20.95;;
75516;SDS011;64097;52.548;13.406;2022-12-18T08:33:50;37.92;;;19.70;;
75516;SDS011;64097;52.548;13.406;2022-12-18T08:36:17;31.90;;;17.15;;
75516;SDS011;64097;52.548;13.406;2022-12-18T08:38:44;31.65;;;16.40;;
75516;SDS011;64097;52.548;13.406;2022-12-18T08:41:10;34.58;;;19.23;;
75516;SDS011;64097;52.548;13.406;2022-12-18T08:43:38;40.50;;;21.10;;
75516;SDS011;64097;52.548;13.406;2022-12-18T08:46:23;36.28;;;19.63;;
75516;SDS011;64097;52.548;13.406;2022-12-18T08:48:50;40.13;;;20.48;;
75516;SDS011;64097;52.548;13.406;2022-12-18T08:51:17;35.92;;;19.55;;
75516;SDS011;64097;52.548;13.406;2022-12-18T08:53:43;35.83;;;19.25;;
75516;SDS011;64097;52.548;13.406;2022-12-18T08:56:09;35.88;;;19.55;;
75516;SDS011;64097;52.548;13.406;2022-12-18T08:58:35;32.88;;;19.00;;
75516;SDS011;64097;52.548;13.406;2022-12-18T09:01:02;32.97;;;19.73;;
75516;SDS011;64097;52.548;13.406;2022-12-18T09:03:28;32.25;;;18.35;;
75516;SDS011;64097;52.548;13.406;2022-12-18T09:05:54;36.67;;;19.48;;
75516;SDS011;64097;52.548;13.406;2022-12-18T09:08:20;35.53;;;19.52;;
75516;SDS011;64097;52.548;13.406;2022-12-18T09:10:46;37.42;;;20.55;;
75516;SDS011;64097;52.548;13.406;2022-12-18T09:13:13;39.10;;;20.95;;
75516;SDS011;64097;52.548;13.406;2022-12-18T09:15:47;34.17;;;18.75;;
75516;SDS011;64097;52.548;13.406;2022-12-18T09:18:15;34.92;;;19.23;;
75516;SDS011;64097;52.548;13.406;2022-12-18T09:20:42;35.13;;;19.35;;
75516;SDS011;64097;52.548;13.406;2022-12-18T09:23:09;34.33;;;18.30;;
75516;SDS011;64097;52.548;13.406;2022-12-18T09:25:35;32.42;;;17.42;;
75516;SDS011;64097;52.548;13.406;2022-12-18T09:28:02;34.78;;;19.10;;
75516;SDS011;64097;52.548;13.406;2022-12-18T09:30:30;36.25;;;19.73;;
75516;SDS011;64097;52.548;13.406;2022-12-18T09:32:58;39.75;;;21.58;;
75516;SDS011;64097;52.548;13.406;2022-12-18T09:35:24;34.90;;;18.38;;
75516;SDS011;64097;52.548;13.406;2022-12-18T09:37:49;35.20;;;19.67;;
75516;SDS011;64097;52.548;13.406;2022-12-18T09:40:19;34.45;;;19.13;;
75516;SDS011;64097;52.548;13.406;2022-12-18T09:42:50;34.30;;;18.50;;
75516;SDS011;64097;52.548;13.406;2022-12-18T09:45:20;34.10;;;18.75;;
75516;SDS011;64097;52.548;13.406;2022-12-18T09:47:47;33.92;;;18.77;;
75516;SDS011;64097;52.548;13.406;2022-12-18T09:52:55;32.72;;;18.20;;
75516;SDS011;64097;52.548;13.406;2022-12-18T09:55:31;32.83;;;18.08;;
75516;SDS011;64097;52.548;13.406;2022-12-18T09:58:02;32.85;;;18.20;;
75516;SDS011;64097;52.548;13.406;2022-12-18T10:03:03;36.13;;;18.95;;
75516;SDS011;64097;52.548;13.406;2022-12-18T10:05:40;33.75;;;18.60;;
75516;SDS011;64097;52.548;13.406;2022-12-18T10:09:01;35.63;;;18.35;;
75516;SDS011;64097;52.548;13.406;2022-12-18T10:13:52;34.40;;;18.65;;
75516;SDS011;64097;52.548;13.406;2022-12-18T10:24:40;37.63;;;19.88;;
75516;SDS011;64097;52.548;13.406;2022-12-18T10:29:42;34.55;;;19.20;;
75516;SDS011;64097;52.548;13.406;2022-12-18T10:32:14;35.53;;;19.05;;
75516;SDS011;64097;52.548;13.406;2022-12-18T10:34:45;36.75;;;18.80;;
75516;SDS011;64097;52.548;13.406;2022-12-18T10:37:19;34.05;;;17.85;;
75516;SDS011;64097;52.548;13.406;2022-12-18T10:42:40;31.67;;;17.85;;
75516;SDS011;64097;52.548;13.406;2022-12-18T10:45:10;33.33;;;18.35;;
75516;SDS011;64097;52.548;13.406;2022-12-18T10:47:43;33.10;;;17.70;;
75516;SDS011;64097;52.548;13.406;2022-12-18T10:50:45;38.35;;;20.15;;
75516;SDS011;64097;52.548;13.406;2022-12-18T10:53:04;36.92;;;20.25;;
75516;SDS011;64097;52.548;13.406;2022-12-18T10:55:31;34.28;;;18.88;;
75516;SDS011;64097;52.548;13.406;2022-12-18T11:03:39;36.70;;;19.05;;
75516;SDS011;64097;52.548;13.406;2022-12-18T11:08:39;42.33;;;21.70;;
75516;SDS011;64097;52.548;13.406;2022-12-18T11:11:19;38.88;;;21.20;;
75516;SDS011;64097;52.548;13.406;2022-12-18T11:16:24;38.92;;;19.95;;
75516;SDS011;64097;52.548;13.406;2022-12-18T11:18:50;35.63;;;18.67;;
75516;SDS011;64097;52.548;13.406;2022-12-18T11:21:15;37.92;;;19.42;;
75516;SDS011;64097;52.548;13.406;2022-12-18T11:23:59;35.13;;;18.23;;
75516;SDS011;64097;52.548;13.406;2022-12-18T11:26:33;35.05;;;18.15;;
75516;SDS011;64097;52.548;13.406;2022-12-18T11:29:09;34.58;;;19.05;;
75516;SDS011;64097;52.548;13.406;2022-12-18T11:31:40;35.08;;;18.08;;
75516;SDS011;64097;52.548;13.406;2022-12-18T11:36:57;37.30;;;18.60;;
75516;SDS011;64097;52.548;13.406;2022-12-18T11:44:54;35.50;;;19.45;;
75516;SDS011;64097;52.548;13.406;2022-12-18T11:47:33;28.75;;;16.38;;
75516;SDS011;64097;52.548;13.406;2022-12-18T11:50:16;26.25;;;14.95;;
75516;SDS011;64097;52.548;13.406;2022-12-18T11:52:48;27.02;;;15.80;;
75516;SDS011;64097;52.548;13.406;2022-12-18T11:57:57;30.08;;;16.63;;
75516;SDS011;64097;52.548;13.406;2022-12-18T12:00:25;34.92;;;19.25;;
75516;SDS011;64097;52.548;13.406;2022-12-18T12:08:30;29.05;;;16.40;;
75516;SDS011;64097;52.548;13.406;2022-12-18T12:30:29;28.25;;;16.55;;
75516;SDS011;64097;52.548;13.406;2022-12-18T12:33:18;29.10;;;16.70;;
75516;SDS011;64097;52.548;13.406;2022-12-18T12:38:57;24.67;;;14.10;;
75516;SDS011;64097;52.548;13.406;2022-12-18T12:41:27;27.00;;;14.48;;
75516;SDS011;64097;52.548;13.406;2022-12-18T12:47:17;28.42;;;15.52;;
75516;SDS011;64097;52.548;13.406;2022-12-18T12:49:56;25.58;;;15.13;;
75516;SDS011;64097;52.548;13.406;2022-12-18T12:52:28;27.40;;;16.10;;
75516;SDS011;64097;52.548;13.406;2022-12-18T12:55:02;25.48;;;14.85;;
75516;SDS011;64097;52.548;13.406;2022-12-18T12:57:36;30.55;;;16.95;;
75516;SDS011;64097;52.548;13.406;2022-12-18T13:02:49;27.20;;;15.57;;
75516;SDS011;64097;52.548;13.406;2022-12-18T13:08:23;29.55;;;16.35;;
75516;SDS011;64097;52.548;13.406;2022-12-18T13:10:57;35.03;;;18.45;;
75516;SDS011;64097;52.548;13.406;2022-12-18T13:13:49;28.27;;;16.52;;
75516;SDS011;64097;52.548;13.406;2022-12-18T13:16:20;29.63;;;18.02;;
75516;SDS011;64097;52.548;13.406;2022-12-18T13:18:50;32.67;;;18.33;;
75516;SDS011;64097;52.548;13.406;2022-12-18T13:21:25;29.90;;;17.77;;
75516;SDS011;64097;52.548;13.406;2022-12-18T13:23:54;31.38;;;17.48;;
75516;SDS011;64097;52.548;13.406;2022-12-18T13:28:54;25.88;;;15.57;;
75516;SDS011;64097;52.548;13.406;2022-12-18T13:34:21;28.27;;;16.85;;
75516;SDS011;64097;52.548;13.406;2022-12-18T13:36:49;28.95;;;16.30;;
75516;SDS011;64097;52.548;13.406;2022-12-18T13:41:46;28.98;;;17.75;;
75516;SDS011;64097;52.548;13.406;2022-12-18T13:44:36;31.80;;;18.40;;
75516;SDS011;64097;52.548;13.406;2022-12-18T13:50:12;29.08;;;16.95;;
75516;SDS011;64097;52.548;13.406;2022-12-18T13:52:47;28.10;;;16.98;;
75516;SDS011;64097;52.548;13.406;2022-12-18T13:55:18;26.02;;;15.70;;
75516;SDS011;64097;52.548;13.406;2022-12-18T13:57:45;27.38;;;16.70;;
